Singapore Changi International Airport
WSSS : now visible

Airfield :











YOU CAN JOIN US ON...

 
LOGIN :

Register | Disclaimer

   EN    FR    IT 

 









Legend :    VFR   Marginal VFR   IFR   Intensive IFR   Very Intensive IFR
Visi :
Ceiling :
>= 8 km
>= 3000ft
5 to 8 km
1000 to 3000 ft
1500m to 5 km
500 to 1000 ft
800 to 1500m
200 to 500 ft
< 800m
< 200 ft
Symbols :   Thunderstorms  Fog  Heavy snow  Heavy precipitations  Wind > 20 kt







- Airport Elevation : 22 ft
- IATA code : SIN


WSSS - Singapore Changi International

CURRENT METAR :
  • 152030Z 21003KT 180V240 CAVOK 28/25 Q1009 NOSIG

EXPIRED METARs :
  • 152000Z VRB02KT CAVOK 28/25 Q1009 NOSIG
  • 151930Z VRB02KT CAVOK 28/25 Q1009 NOSIG
  • 151900Z VRB02KT 9999 FEW020 BKN160 28/25 Q1010 NOSIG
  • 151830Z VRB02KT 9999 FEW020 SCT160 BKN300 28/25 Q1010 NOSIG
  • 151800Z VRB02KT 9999 FEW020 BKN300 28/25 Q1010 NOSIG

TAF TAF WSSS
Valid from the 15 at 18:00 until the 17 at 00:00 UTC


151700Z 1518/1700 17007KT 9999 FEW015 SCT020
TEMPO 1603/1607 3000 TSRA FEW012CB BKN015
WSJC FIR / Asia



MET'MAP, your aeronautical weather chart ! - Copyright ORBIFLY December 2007 - Disclaimer

ORBIFLY MET'MAP TEAM :

Programming & Development : Alexandra Zaïnal
Concept & Development : Baudouin d'Aumeries
Co-Development & Prog : Marc-Olivier Méhu
Technical & hardware support : Manuel Goepfert

Contact : metmap@orbifly.com




SOURCES & CREDITS :

   NOAA       Earth
Advisory